KFBG/FBG METAR and TAF weather

Enter ICAO airport designator
Station Type Date Time Source
KFBG METAR 2020/04/03 21:56 UTC NOAA

KFBG 032156Z AUTO 28016G19KT 10SM CLR 23/M04 A2982 RMK AO2 SLP100 T02291043 $


Station Type Date Time Source
KFBG Decoded METAR 2020/04/03 21:56 UTC NOAA

Fort Bragg / Simmons Army Airfield, NC, United States (KFBG) 35-08N 078-56W 74M
Apr 03, 2020 - 05:56 PM EDT / 2020.04.03 2156 UTC
Wind: from the W (280 degrees) at 18 MPH (16 KT) gusting to 22 MPH (19 KT):0
Visibility: 10 mile(s):0
Sky conditions: clear
Temperature: 73.2 F (22.9 C)
Dew Point: 24.3 F (-4.3 C)
Relative Humidity: 15%
Pressure (altimeter): 29.82 in. Hg (1009 hPa)
ob: KFBG 032156Z AUTO 28016G19KT 10SM CLR 23/M04 A2982 RMK AO2 SLP100 T02291043
cycle: 22

Station Type Date Time Source
KFBG TAF 2020/04/03 17:03 UTC NOAA

TAF KFBG 031700Z 0317/0423 32012G18KT 9999 SKC QNH2986INS
BECMG 0322/0323 02009KT 9999 SKC QNH2986INS TX21/0321Z TN08/0411Z

Example: see airport list